Weather at Serres Emmanuel Pappas Airfield

Public forecast

Using degrees Celsius for public forecast. Weather courtesy of forecast.io.

Closest aviation weather report (METAR) to Serres Emmanuel Pappas Airfield

Report is more than 2 hours old.

Closest report is Thessaloniki Macedonia International Airport, 44.0 nm (81.6 km) SW.

2024/06/24 20:50 (retrieved 3 hours ago)

LGTS 242050Z 31012KT 9999 VCTS FEW020CB SCT030 27/22 Q1013 TEMPO TSRA

Closest aviation forecast (TAF) to Serres Emmanuel Pappas Airfield

Closest forecast is Thessaloniki Macedonia International Airport, 44.0 nm (81.6 km) SW.

2024/06/24 20:18 Ammendment (retrieved 4 hours ago)

TAF AMD LGTS 242010Z 2420/2518 VRB03KT 9999 FEW030 PROB30 TEMPO 2420/2422 4000 TSRA FEW018CB SCT020 BKN050 TEMPO 2512/2518 18015KT